Eghezee, Belgium
Current Conditions -  °F | °C
As of 4:25 PM on Thursday 30 Oct 2014 (Local Time) from EBBE Reporting Station
Broken Clouds Broken Clouds  
Wind Chill: 63°   Ceiling: 15000
Heat Index: 63°   Visibility: 6mi
Dew Point: 57°   Wind: 6mph
Humidity: 82%   Direction: 200°SSW
Pressure: 30.18"   Gusts: NA
Location:  50.59°N, 4.91°E
Report Text: EBBE 301525Z 20005KT 9999 BKN150 17/14 Q1022 BLU BLU
Loading
Personal Weather Stations






























Interactive Weather Map
Tropical Storm Tracking
New forecast layout! Learn more

10-Day Weather Forecast

Advertisements
Track Severe Weather on mobile